Sumare, Brazil
Current Conditions -  °F | °C
As of 10:00 PM on Thursday 18 Dec 2014 (Local Time) from SBKP Reporting Station
Few Clouds Few Clouds  
Wind Chill: 81°   Ceiling: Unl
Heat Index: 82°   Visibility: 6mi
Dew Point: 63°   Wind: 8mph
Humidity: 54%   Direction: 120°ESE
Pressure: 29.88"   Gusts: NA
Location:  22.8°S, 47.29°W
Report Text: SBKP 190000Z 12007KT 9999 FEW040 27/17 Q1012
Loading
Personal Weather Stations






























Interactive Weather Map New forecast layout! Learn more

10-Day Weather Forecast

Advertisements
Track Severe Weather on mobile